Historyczne dane pomiarowe

Dodano dane terminowe – wersja testowa.

Dane z okresu 1951-2019

Wersja bazy: 1.34 [2019-03-16, lista zmian], aktualizacja planowana na 2019-04-15

Dane meteo z obszaru Polski uzyskane na podstawie danych udostępnionych przez Instytut Meteorologii i Gospodarki Wodnej – Państwowy Instytut Badawczy.

 

Wybierz Datę:    

       

TemperaturaWilgotnośćWiatrCiśnienieOpadyŚniegCzas trwania zjawisk
 Stacja t tx tn tng RH VA  wxwx mslp ppp RRR   cm mm wxwxwxwxwxwxwx
1961-08-14 13.6 18.1 6.8- 69.0- 3.7 0.3---- 0.0------------
1961-08-13 11.2 16.1 9.0- 85.8- 4.7 0.7---- 0.1------------
1961-08-12 15.4 20.1 13.0- 84.0- 7.3 0.0---- 14.6------------
1961-08-11 17.0 20.3 14.5- 94.8- 5.0 0.7---- 17.7------------
1961-08-10 21.1 27.1 15.5- 86.0- 4.3 0.3---- 11.0------------
1961-08-09 19.8 25.3 16.0- 84.0- 4.0 0.3---- 5.3------------
1961-08-08 18.5 24.6 10.0- 77.3- 2.7 0.7---- 0.0------------
1961-08-07 17.7 24.3 15.5- 83.8- 7.3 0.3---- 0.5------------
1961-08-06 24.8 29.1 17.5- 51.5- 0.3 1.7---- 1.4------------
1961-08-05 18.6 23.6 14.0- 77.0- 2.7 0.3---- 0.0------------
1961-08-04 15.3 17.6 7.0- 63.5- 5.0 1.3---- 0.4------------
1961-08-03 13.3 16.6 10.7- 79.5- 4.0 1.3---- 0.5------------
1961-08-02 16.2 23.1 9.5- 79.5- 3.0 0.3---- 7.0------------
1961-08-01 14.3 20.3 11.5- 68.3- 3.0 1.0---- 0.0------------
1961-07-31 12.4 15.8 10.5- 79.8- 6.7 2.0---- 0.0------------
1961-07-30 12.0 14.6 8.0- 81.8- 7.0 1.7---- 21.2------------
1961-07-29 12.0 16.1 10.2- 78.5- 6.3 1.3---- 0.0------------
1961-07-28 14.5 17.8 12.0- 85.8- 7.0 2.3---- 22.7------------
1961-07-27 17.2 21.6 13.5- 77.3- 6.3 2.0---- 21.4------------
1961-07-26 16.9 22.6 9.0- 61.8- 0.3 1.0---- 0.0------------
1961-07-25 11.4 15.8 9.5- 78.8- 6.3 0.3---- 0.0------------
1961-07-24 12.8 14.6 11.2- 70.5- 6.3 1.3---- 0.0------------
1961-07-23 13.2 14.8 9.0- 75.3- 6.7 1.3---- 0.0------------
1961-07-22 13.0 16.3 11.2- 83.5- 6.0 0.7---- 0.0------------
1961-07-21 13.2 15.6 12.0- 81.0- 7.0 1.3---- 1.5------------
1961-07-20 13.8 17.9 9.0- 81.8- 6.3 0.3---- 5.0------------
1961-07-19 12.9 16.6 11.0- 88.8- 7.0 0.0---- 7.5------------
1961-07-18 13.7 18.1 11.2- 76.3- 6.0 1.3---- 2.9------------
1961-07-17 13.0 16.3 9.7- 73.8- 6.7 1.7---- 2.1------------
1961-07-16 15.2 20.1 12.0- 67.8- 3.3 1.3---- 0.2------------
1961-07-15 17.1 23.1 14.2- 69.0- 5.3 1.7---- 15.0------------
1961-07-14 15.7 19.3 11.0- 54.5- 6.0 3.0---- 0.0------------
1961-07-13 17.8 22.1 14.5- 72.0- 6.3 2.3---- 0.0------------
1961-07-12 20.6 27.1 12.0- 74.5- 0.7 0.3---- 0.0------------
1961-07-11 16.8 22.6 7.2- 72.5- 7.0 0.3---- 13.2------------
1961-07-10 11.5 16.1 8.5- 71.0- 4.0 2.0---- 0.0------------
1961-07-09 12.5 16.1 7.8- 85.0- 7.3 2.0---- 2.6------------
1961-07-08 15.4 20.1 6.7- 54.3- 2.0 0.7---- 0.0------------
1961-07-07 10.9 16.1 8.7- 71.8- 4.0 1.0---- 0.0------------
1961-07-06 11.9 14.3 8.0- 65.8- 6.7 2.3---- 0.0------------
1961-07-05 11.2 15.6 9.2- 63.5- 4.7 2.0---- 0.4------------
1961-07-04 18.9 25.6 15.0- 62.3- 5.7 1.3---- 0.0------------
1961-07-03 24.5 29.8 16.0- 49.0- 0.7 0.7---- 0.0------------
1961-07-02 22.2 29.1 14.0- 52.5- 0.0 0.3---- 0.0------------
1961-07-01 20.8 27.3 12.5- 61.3- 0.0 0.3---- 0.0------------
1961-06-30 18.0 24.6 10.0- 66.0- 0.0 0.3---- 0.0------------
1961-06-29 15.2 21.1 10.5- 68.0- 0.7 1.3---- 0.0------------
1961-06-28 12.6 20.3 11.1- 62.5- 4.0 2.7---- 0.0------------
1961-06-27 21.8 25.3 16.5- 69.8- 6.3 3.0---- 3.1------------
1961-06-26 21.2 26.1 15.7- 69.8- 4.0 0.0---- 0.0------------
1961-06-25 21.6 27.6 13.0- 57.3- 0.0 0.3---- 0.0------------
1961-06-24 18.0 24.3 11.7- 66.3- 0.7 0.7---- 0.0------------
1961-06-23 16.4 21.3 12.0- 75.0- 0.7 1.7---- 0.0------------
1961-06-22 20.0 24.1 7.0- 72.5- 4.3 2.0---- 8.1------------
1961-06-21 15.7 22.3 7.0- 62.3- 1.7 1.0---- 0.0------------
1961-06-20 12.5 18.6 8.5- 69.5- 0.7 0.3---- 0.0------------
1961-06-19 15.6 19.3 12.7- 73.3- 5.0 1.0---- 2.2------------
1961-06-18 20.8 25.3 11.5- 55.3- 0.0 2.0---- 0.0------------
1961-06-17 16.0 21.6 6.7- 64.0- 0.7 0.0---- 0.0------------
1961-06-16 12.6 18.6 5.2- 62.0- 3.7 1.3---- 0.0------------
418.1 ms

 

Źródłem pochodzenia danych jest Instytut Meteorologii i Gospodarki Wodnej – Państwowy Instytut Badawczy. Dane Instytutu Meteorologii i Gospodarki Wodnej – Państwowego Instytutu Badawczego zostały przetworzone.

Dane źródłowe można odnaleźć na stronie https://dane.imgw.pl